BRS2101 SBGO-SBBR
Flight info
| Callsign | BRS2101 |
|---|---|
| Flight time | 0h 20m |
| Altitude | 19000 |
| Route | DALSA DCT PAJEM |
| Aircraft | A319/M-SDE2FGHIM1RWXYZ/LB1 |
Departure
| Time | 2026-04-25 19:24 |
|---|---|
| Airport | Santa Genoveva International Airport (SBGO) |
Arrival
| Time | 2026-04-25 19:45 |
|---|---|
| Airport | Presidente Juscelino Kubitschek International Airport (SBBR) |
| Time | Latitude | Longitude | Altitude | Speed | Heading |
|---|---|---|---|---|---|
| 2026-04-25 19:07 | -16.63201 | -49.22587 | 2454 ft | 0 kts | 240° |
| 2026-04-25 19:18 | -16.63199 | -49.22583 | 2461 ft | 3 kts | 240° |
| 2026-04-25 19:18 | -16.63188 | -49.22565 | 2451 ft | 3 kts | 238° |
| 2026-04-25 19:19 | -16.63178 | -49.22547 | 2459 ft | 3 kts | 252° |
| 2026-04-25 19:19 | -16.63176 | -49.22530 | 2450 ft | 2 kts | 299° |
| 2026-04-25 19:19 | -16.63177 | -49.22529 | 2450 ft | 0 kts | 301° |
| 2026-04-25 19:21 | -16.63150 | -49.22575 | 2451 ft | 12 kts | 301° |
| 2026-04-25 19:21 | -16.63113 | -49.22641 | 2459 ft | 10 kts | 300° |
| 2026-04-25 19:22 | -16.63069 | -49.22721 | 2457 ft | 16 kts | 298° |
| 2026-04-25 19:22 | -16.63002 | -49.22844 | 2455 ft | 23 kts | 300° |
| 2026-04-25 19:22 | -16.62798 | -49.23100 | 2458 ft | 17 kts | 347° |
| 2026-04-25 19:23 | -16.62748 | -49.23114 | 2454 ft | 0 kts | 346° |
| 2026-04-25 19:23 | -16.62721 | -49.23121 | 2459 ft | 8 kts | 346° |
| 2026-04-25 19:23 | -16.62655 | -49.23114 | 2454 ft | 9 kts | 32° |
| 2026-04-25 19:24 | -16.62675 | -49.23038 | 2457 ft | 20 kts | 121° |
| 2026-04-25 19:24 | -16.62852 | -49.22719 | 2464 ft | 89 kts | 120° |
| 2026-04-25 19:24 | -16.63785 | -49.21064 | 3260 ft | 145 kts | 120° |
| 2026-04-25 19:25 | -16.64948 | -49.18997 | 3944 ft | 189 kts | 121° |
| 2026-04-25 19:25 | -16.65655 | -49.17741 | 4339 ft | 214 kts | 121° |
| 2026-04-25 19:25 | -16.66409 | -49.16323 | 4881 ft | 240 kts | 113° |
| 2026-04-25 19:26 | -16.66642 | -49.14509 | 5469 ft | 268 kts | 85° |
| 2026-04-25 19:26 | -16.66082 | -49.12601 | 6371 ft | 281 kts | 66° |
| 2026-04-25 19:26 | -16.65276 | -49.10720 | 7410 ft | 287 kts | 65° |
| 2026-04-25 19:26 | -16.64438 | -49.08818 | 8496 ft | 291 kts | 65° |
| 2026-04-25 19:27 | -16.63577 | -49.06890 | 9600 ft | 295 kts | 65° |
| 2026-04-25 19:27 | -16.63001 | -49.05606 | 10302 ft | 297 kts | 65° |
| 2026-04-25 19:27 | -16.61820 | -49.02963 | 11545 ft | 304 kts | 66° |
| 2026-04-25 19:27 | -16.61037 | -49.00910 | 12225 ft | 319 kts | 71° |
| 2026-04-25 19:28 | -16.60281 | -48.98663 | 12729 ft | 336 kts | 71° |
| 2026-04-25 19:28 | -16.59505 | -48.96330 | 13458 ft | 344 kts | 71° |
| 2026-04-25 19:28 | -16.58717 | -48.93957 | 14191 ft | 349 kts | 71° |
| 2026-04-25 19:28 | -16.57919 | -48.91552 | 14893 ft | 353 kts | 71° |
| 2026-04-25 19:29 | -16.57112 | -48.89122 | 15600 ft | 356 kts | 71° |
| 2026-04-25 19:29 | -16.56297 | -48.86674 | 16326 ft | 359 kts | 71° |
| 2026-04-25 19:29 | -16.55473 | -48.84205 | 17054 ft | 362 kts | 71° |
| 2026-04-25 19:29 | -16.54527 | -48.81765 | 17751 ft | 365 kts | 63° |
| 2026-04-25 19:30 | -16.53135 | -48.79588 | 18387 ft | 369 kts | 51° |
| 2026-04-25 19:30 | -16.51288 | -48.77710 | 18816 ft | 373 kts | 39° |
| 2026-04-25 19:30 | -16.49131 | -48.76206 | 18959 ft | 373 kts | 32° |
| 2026-04-25 19:30 | -16.46960 | -48.74785 | 18975 ft | 368 kts | 32° |
| 2026-04-25 19:31 | -16.44779 | -48.73364 | 18985 ft | 370 kts | 32° |
| 2026-04-25 19:31 | -16.42594 | -48.71943 | 18979 ft | 371 kts | 32° |
| 2026-04-25 19:31 | -16.40404 | -48.70517 | 18981 ft | 371 kts | 32° |
| 2026-04-25 19:31 | -16.38264 | -48.69119 | 18614 ft | 369 kts | 32° |
| 2026-04-25 19:32 | -16.36094 | -48.67699 | 18229 ft | 366 kts | 32° |
| 2026-04-25 19:32 | -16.33936 | -48.66282 | 17758 ft | 365 kts | 32° |
| 2026-04-25 19:32 | -16.31811 | -48.64888 | 17271 ft | 359 kts | 32° |
| 2026-04-25 19:32 | -16.30413 | -48.63971 | 16805 ft | 358 kts | 32° |
| 2026-04-25 19:33 | -16.27638 | -48.62151 | 16150 ft | 347 kts | 32° |
| 2026-04-25 19:33 | -16.25738 | -48.60655 | 15702 ft | 339 kts | 45° |
| 2026-04-25 19:33 | -16.24314 | -48.58746 | 15401 ft | 329 kts | 59° |
| 2026-04-25 19:33 | -16.23117 | -48.56765 | 15347 ft | 318 kts | 57° |
| 2026-04-25 19:34 | -16.21919 | -48.54844 | 15060 ft | 317 kts | 57° |
| 2026-04-25 19:34 | -16.20701 | -48.52916 | 14660 ft | 321 kts | 57° |
| 2026-04-25 19:34 | -16.19485 | -48.50990 | 14244 ft | 324 kts | 57° |
| 2026-04-25 19:34 | -16.18244 | -48.49018 | 13823 ft | 328 kts | 57° |
| 2026-04-25 19:35 | -16.16993 | -48.47022 | 13341 ft | 330 kts | 57° |
| 2026-04-25 19:35 | -16.15744 | -48.45020 | 12909 ft | 330 kts | 57° |
| 2026-04-25 19:35 | -16.14496 | -48.43014 | 12477 ft | 330 kts | 57° |
| 2026-04-25 19:35 | -16.13250 | -48.41013 | 12046 ft | 329 kts | 57° |
| 2026-04-25 19:36 | -16.12005 | -48.39018 | 11594 ft | 329 kts | 56° |
| 2026-04-25 19:36 | -16.10757 | -48.37021 | 11162 ft | 329 kts | 56° |
| 2026-04-25 19:36 | -16.09518 | -48.35035 | 10782 ft | 326 kts | 56° |
| 2026-04-25 19:36 | -16.08284 | -48.33053 | 10362 ft | 327 kts | 56° |
| 2026-04-25 19:37 | -16.07063 | -48.31090 | 9989 ft | 319 kts | 56° |
| 2026-04-25 19:37 | -16.05892 | -48.29204 | 9634 ft | 307 kts | 56° |
| 2026-04-25 19:37 | -16.04748 | -48.27360 | 9117 ft | 301 kts | 56° |
| 2026-04-25 19:37 | -16.03616 | -48.25544 | 8567 ft | 297 kts | 56° |
| 2026-04-25 19:38 | -16.02500 | -48.23765 | 8117 ft | 291 kts | 56° |
| 2026-04-25 19:38 | -16.01405 | -48.22021 | 7722 ft | 285 kts | 57° |
| 2026-04-25 19:38 | -16.00312 | -48.20323 | 7349 ft | 279 kts | 52° |
| 2026-04-25 19:38 | -15.98942 | -48.18927 | 6986 ft | 275 kts | 36° |
| 2026-04-25 19:39 | -15.97297 | -48.18003 | 6817 ft | 262 kts | 20° |
| 2026-04-25 19:39 | -15.95589 | -48.17536 | 6777 ft | 248 kts | 11° |
| 2026-04-25 19:39 | -15.93968 | -48.17176 | 6735 ft | 236 kts | 12° |
| 2026-04-25 19:39 | -15.92396 | -48.16822 | 6706 ft | 226 kts | 11° |
| 2026-04-25 19:40 | -15.90880 | -48.16481 | 6678 ft | 221 kts | 11° |
| 2026-04-25 19:40 | -15.89400 | -48.16061 | 6615 ft | 221 kts | 26° |
| 2026-04-25 19:40 | -15.88228 | -48.15051 | 6575 ft | 221 kts | 56° |
| 2026-04-25 19:40 | -15.87691 | -48.13610 | 6535 ft | 211 kts | 84° |
| 2026-04-25 19:41 | -15.87590 | -48.12104 | 6491 ft | 208 kts | 87° |
| 2026-04-25 19:41 | -15.87496 | -48.10603 | 6422 ft | 208 kts | 87° |
| 2026-04-25 19:41 | -15.87403 | -48.09132 | 6336 ft | 208 kts | 88° |
| 2026-04-25 19:41 | -15.87372 | -48.08625 | 6280 ft | 209 kts | 88° |
| 2026-04-25 19:42 | -15.87212 | -48.06132 | 5898 ft | 209 kts | 88° |
| 2026-04-25 19:42 | -15.87117 | -48.04631 | 5635 ft | 206 kts | 87° |
| 2026-04-25 19:42 | -15.87022 | -48.03147 | 5387 ft | 205 kts | 87° |
| 2026-04-25 19:42 | -15.86929 | -48.01694 | 5166 ft | 196 kts | 88° |
| 2026-04-25 19:43 | -15.86841 | -48.00315 | 4894 ft | 185 kts | 88° |
| 2026-04-25 19:43 | -15.86759 | -47.99043 | 4664 ft | 169 kts | 89° |
| 2026-04-25 19:43 | -15.86684 | -47.97867 | 4458 ft | 162 kts | 88° |
| 2026-04-25 19:43 | -15.86611 | -47.96741 | 4267 ft | 152 kts | 89° |
| 2026-04-25 19:44 | -15.86543 | -47.95677 | 4074 ft | 143 kts | 88° |
| 2026-04-25 19:44 | -15.86478 | -47.94654 | 3887 ft | 140 kts | 86° |
| 2026-04-25 19:44 | -15.86414 | -47.93640 | 3685 ft | 140 kts | 89° |
| 2026-04-25 19:44 | -15.86347 | -47.92640 | 3488 ft | 138 kts | 89° |
| 2026-04-25 19:45 | -15.86292 | -47.91730 | 3462 ft | 113 kts | 86° |
| 2026-04-25 19:45 | -15.86250 | -47.91097 | 3473 ft | 54 kts | 86° |
| 2026-04-25 19:45 | -15.86255 | -47.90861 | 3477 ft | 21 kts | 111° |
| 2026-04-25 19:45 | -15.86308 | -47.90792 | 3480 ft | 11 kts | 131° |
| 2026-04-25 19:46 | -15.86356 | -47.90734 | 3483 ft | 7 kts | 129° |
| 2026-04-25 19:46 | -15.86427 | -47.90708 | 3481 ft | 16 kts | 176° |
| 2026-04-25 19:46 | -15.86526 | -47.90687 | 3481 ft | 13 kts | 133° |
| 2026-04-25 19:46 | -15.86528 | -47.90607 | 3482 ft | 12 kts | 85° |
| 2026-04-25 19:47 | -15.86521 | -47.90497 | 3487 ft | 14 kts | 89° |
| 2026-04-25 19:47 | -15.86606 | -47.90458 | 3484 ft | 11 kts | 176° |
| 2026-04-25 19:47 | -15.86629 | -47.90478 | 3483 ft | 1 kts | 260° |
| 2026-04-25 19:47 | -15.86631 | -47.90498 | 3485 ft | 0 kts | 265° |